Time;durP1;ratioP1;P1;durP2;ratioP2;P2;SDS_P1;SDS_P2;PMS_P1;PMS_P2;Temp;Humidity;BMP_temperature;BMP_pressure;BME280_temperature;BME280_humidity;BME280_pressure;Samples;Min_cycle;Max_cycle;Signal;HPM_P1;HPM_P2
2023/07/05 04:06:33;;;;;;;1.67;1.40;;;18.60;99.90;;;;;;4944035;29;20988;-62
2023/07/05 04:08:59;;;;;;;1.10;1.00;;;18.60;99.90;;;;;;4939639;29;20476;-62
2023/07/05 04:11:25;;;;;;;1.67;1.40;;;18.60;99.90;;;;;;4939858;29;20410;-63
2023/07/05 04:13:52;;;;;;;1.50;1.40;;;18.60;99.90;;;;;;4939650;29;20479;-63
2023/07/05 04:16:20;;;;;;;1.00;1.00;;;18.60;99.90;;;;;;4939781;29;20219;-62
2023/07/05 04:18:50;;;;;;;0.97;0.97;;;18.60;99.90;;;;;;4939887;29;20447;-61
2023/07/05 04:21:16;;;;;;;2.53;1.30;;;18.70;99.90;;;;;;4922542;29;20526;-62
2023/07/05 04:23:42;;;;;;;2.33;1.10;;;18.70;99.90;;;;;;4939412;29;20508;-62
2023/07/05 04:26:10;;;;;;;0.97;0.97;;;18.70;99.90;;;;;;4939431;29;20201;-63
2023/07/05 04:28:37;;;;;;;1.17;0.70;;;18.60;99.90;;;;;;4939569;29;20178;-62
2023/07/05 04:31:07;;;;;;;0.93;0.93;;;18.60;99.90;;;;;;4939560;29;20416;-63
2023/07/05 04:33:33;;;;;;;1.00;0.90;;;18.70;99.90;;;;;;4939230;29;20417;-65
2023/07/05 04:36:00;;;;;;;1.30;1.20;;;18.70;99.90;;;;;;4938728;29;20964;-62
2023/07/05 04:38:26;;;;;;;0.50;0.50;;;18.70;99.90;;;;;;4939403;29;20205;-64
2023/07/05 04:40:53;;;;;;;1.40;1.30;;;18.70;99.90;;;;;;4939512;29;20415;-61
2023/07/05 04:43:19;;;;;;;2.77;1.47;;;18.80;99.90;;;;;;4939021;29;20403;-62
2023/07/05 04:45:52;;;;;;;1.47;1.37;;;18.80;99.90;;;;;;4938488;29;20773;-62
2023/07/05 04:48:18;;;;;;;0.70;0.70;;;18.80;99.90;;;;;;4935901;29;20513;-62
2023/07/05 04:50:44;;;;;;;1.30;1.30;;;18.80;99.90;;;;;;4939375;29;20431;-63
2023/07/05 04:53:09;;;;;;;1.10;0.80;;;18.80;99.90;;;;;;4922057;29;20190;-62
2023/07/05 04:55:35;;;;;;;0.80;0.80;;;18.70;99.90;;;;;;4938526;29;20469;-61
2023/07/05 04:58:03;;;;;;;1.37;1.30;;;18.70;99.90;;;;;;4938650;29;20262;-60
2023/07/05 05:00:29;;;;;;;1.13;1.13;;;18.70;99.90;;;;;;4938066;29;20294;-62
2023/07/05 05:02:55;;;;;;;0.97;0.93;;;18.70;99.90;;;;;;4938447;29;20768;-64
2023/07/05 05:05:20;;;;;;;0.83;0.83;;;18.70;99.90;;;;;;4938121;29;20539;-60
2023/07/05 05:07:46;;;;;;;1.60;1.47;;;18.80;99.90;;;;;;4938439;29;20195;-61
2023/07/05 05:10:11;;;;;;;1.50;1.20;;;18.90;99.90;;;;;;4937694;29;20174;-62
2023/07/05 05:12:37;;;;;;;1.37;1.30;;;19.00;99.90;;;;;;4938867;29;20182;-61
2023/07/05 05:15:03;;;;;;;0.83;0.83;;;19.20;99.90;;;;;;4937201;29;20713;-62
2023/07/05 05:17:29;;;;;;;2.20;1.10;;;19.40;99.90;;;;;;4921249;29;20205;-62
2023/07/05 05:19:54;;;;;;;1.20;1.10;;;19.60;99.90;;;;;;4938068;29;20492;-61
2023/07/05 05:22:20;;;;;;;1.20;1.10;;;19.70;99.90;;;;;;4938506;29;20177;-61
2023/07/05 05:24:45;;;;;;;1.10;1.10;;;19.80;99.90;;;;;;4937790;29;20751;-61
2023/07/05 05:27:11;;;;;;;1.20;1.10;;;19.90;99.90;;;;;;4938284;29;20194;-61
2023/07/05 05:29:36;;;;;;;1.23;0.90;;;19.90;99.90;;;;;;4938313;29;20184;-61
2023/07/05 05:32:02;;;;;;;1.07;1.07;;;19.80;99.90;;;;;;4938591;29;20636;-62
2023/07/05 05:34:28;;;;;;;1.23;1.20;;;19.90;99.90;;;;;;4937596;29;20652;-61
2023/07/05 05:36:53;;;;;;;1.10;0.97;;;20.00;99.90;;;;;;4937669;29;20204;-62
2023/07/05 05:39:23;;;;;;;0.90;0.90;;;20.20;99.90;;;;;;4938360;29;20201;-62
2023/07/05 05:41:49;;;;;;;0.77;0.77;;;20.70;99.90;;;;;;4937261;29;20253;-62
2023/07/05 05:44:15;;;;;;;1.80;1.13;;;21.20;99.90;;;;;;4937678;29;20823;-62
2023/07/05 05:46:40;;;;;;;0.63;0.63;;;21.70;99.90;;;;;;4936850;29;20192;-62
2023/07/05 05:49:06;;;;;;;0.80;0.80;;;21.90;99.90;;;;;;4937741;29;20188;-62
2023/07/05 05:51:31;;;;;;;1.10;1.00;;;21.90;99.90;;;;;;4937182;29;20189;-60
2023/07/05 05:53:57;;;;;;;1.80;0.80;;;21.80;99.90;;;;;;4937249;29;20175;-61
2023/07/05 05:56:22;;;;;;;1.10;1.00;;;21.70;99.90;;;;;;4937950;29;20554;-61
2023/07/05 05:58:48;;;;;;;0.80;0.80;;;21.50;99.90;;;;;;4938056;29;20260;-60
2023/07/05 06:01:14;;;;;;;1.03;1.00;;;21.40;99.90;;;;;;4920622;29;20170;-61
2023/07/05 06:03:40;;;;;;;1.00;1.00;;;21.30;99.90;;;;;;4937421;29;20180;-61
2023/07/05 06:06:05;;;;;;;0.77;0.77;;;21.10;99.90;;;;;;4937652;29;20189;-61
2023/07/05 06:08:32;;;;;;;3.87;1.10;;;21.10;99.90;;;;;;4937600;29;20189;-65
2023/07/05 06:10:59;;;;;;;0.70;0.70;;;21.10;99.90;;;;;;4938015;29;20177;-64
2023/07/05 06:13:27;;;;;;;0.70;0.70;;;21.20;99.90;;;;;;4936509;29;20402;-63
2023/07/05 06:15:54;;;;;;;1.40;1.20;;;21.30;99.90;;;;;;4937143;29;20977;-63
2023/07/05 06:18:20;;;;;;;1.70;1.60;;;21.40;99.90;;;;;;4937175;29;21006;-64
2023/07/05 06:20:45;;;;;;;1.33;1.23;;;21.60;99.90;;;;;;4937416;29;20514;-62
2023/07/05 06:23:11;;;;;;;1.00;1.00;;;21.60;99.90;;;;;;4937348;29;20204;-63
2023/07/05 06:25:36;;;;;;;1.50;1.40;;;21.70;99.90;;;;;;4936991;29;20550;-64
2023/07/05 06:28:02;;;;;;;1.40;1.30;;;21.70;99.90;;;;;;4937414;29;20649;-63
2023/07/05 06:30:28;;;;;;;1.40;1.30;;;21.80;99.90;;;;;;4937149;29;20184;-64
2023/07/05 06:32:55;;;;;;;1.00;0.90;;;21.90;99.90;;;;;;4937320;29;20173;-63
2023/07/05 06:35:21;;;;;;;0.90;0.90;;;22.00;99.90;;;;;;4936714;29;20207;-71
2023/07/05 06:37:46;;;;;;;0.80;0.80;;;22.10;99.90;;;;;;4937053;29;20420;-62
2023/07/05 06:40:12;;;;;;;0.77;0.77;;;22.20;99.90;;;;;;4937269;29;20947;-63
2023/07/05 06:42:38;;;;;;;1.27;1.17;;;22.30;99.90;;;;;;4937095;29;20174;-63
2023/07/05 06:45:04;;;;;;;1.53;0.87;;;22.40;99.90;;;;;;4919321;29;20412;-63
2023/07/05 06:47:30;;;;;;;0.90;0.90;;;22.50;99.90;;;;;;4922142;29;20595;-62
2023/07/05 06:49:55;;;;;;;0.70;0.70;;;22.40;99.90;;;;;;4937094;29;20412;-63
2023/07/05 06:52:21;;;;;;;0.60;0.60;;;22.10;99.90;;;;;;4936573;29;20185;-62
2023/07/05 06:54:46;;;;;;;1.00;0.90;;;21.70;99.90;;;;;;4936652;29;20178;-62
2023/07/05 06:57:12;;;;;;;0.90;0.90;;;21.20;99.90;;;;;;4936937;29;20201;-63
2023/07/05 06:59:38;;;;;;;1.00;0.97;;;20.80;99.90;;;;;;4936765;29;20194;-63
2023/07/05 07:02:05;;;;;;;1.00;0.93;;;20.40;99.90;;;;;;4936631;29;20296;-62
2023/07/05 07:04:31;;;;;;;1.33;0.53;;;20.10;99.90;;;;;;4936395;29;20773;-62
2023/07/05 07:06:56;;;;;;;1.10;1.00;;;19.80;99.90;;;;;;4936447;29;20460;-63
2023/07/05 07:09:22;;;;;;;1.97;1.13;;;19.40;99.90;;;;;;4936777;29;20188;-63
2023/07/05 07:11:47;;;;;;;0.80;0.80;;;19.10;99.90;;;;;;4936542;29;20256;-62
2023/07/05 07:14:13;;;;;;;1.10;1.00;;;18.90;99.90;;;;;;4936294;29;20189;-61
2023/07/05 07:16:39;;;;;;;0.90;0.87;;;18.60;99.90;;;;;;4936670;29;20228;-65
2023/07/05 07:19:04;;;;;;;1.33;0.70;;;18.50;99.90;;;;;;4936631;29;20212;-62
2023/07/05 07:21:31;;;;;;;1.10;1.10;;;18.30;99.90;;;;;;4936748;29;20180;-61
2023/07/05 07:23:56;;;;;;;1.00;1.00;;;18.20;99.90;;;;;;4936055;29;20598;-62
2023/07/05 07:26:24;;;;;;;1.20;1.20;;;18.10;99.90;;;;;;4936209;29;20456;-62
2023/07/05 07:28:53;;;;;;;0.60;0.60;;;18.10;99.90;;;;;;4936513;29;20181;-62
2023/07/05 07:31:22;;;;;;;1.33;1.23;;;18.20;99.90;;;;;;4936533;29;20917;-63
2023/07/05 07:33:48;;;;;;;1.97;1.60;;;18.40;99.90;;;;;;4936049;29;20769;-61
2023/07/05 07:36:17;;;;;;;1.00;0.83;;;18.50;99.90;;;;;;4936158;29;20543;-64
2023/07/05 07:38:43;;;;;;;2.50;1.00;;;18.70;99.90;;;;;;4936513;29;20460;-63
2023/07/05 07:41:12;;;;;;;0.53;0.53;;;18.80;99.90;;;;;;4936140;29;20429;-63
2023/07/05 07:43:38;;;;;;;0.60;0.60;;;19.10;99.90;;;;;;4936024;29;20413;-63
2023/07/05 07:46:09;;;;;;;3.70;0.83;;;19.70;99.90;;;;;;4935947;29;21046;-62
2023/07/05 07:48:34;;;;;;;3.20;1.33;;;20.20;99.90;;;;;;4935663;29;20216;-63
2023/07/05 07:51:00;;;;;;;0.80;0.80;;;20.60;99.90;;;;;;4936315;29;20450;-64
2023/07/05 07:53:25;;;;;;;0.50;0.50;;;21.30;99.90;;;;;;4935899;29;20233;-63
2023/07/05 07:55:51;;;;;;;0.90;0.73;;;22.10;99.90;;;;;;4936460;29;20611;-63
2023/07/05 07:58:16;;;;;;;0.70;0.70;;;22.70;99.90;;;;;;4919146;29;20182;-64
2023/07/05 08:00:42;;;;;;;1.13;1.07;;;23.10;99.90;;;;;;4935805;29;20588;-63
2023/07/05 08:03:08;;;;;;;0.80;0.80;;;23.20;99.90;;;;;;4936253;29;20213;-64
2023/07/05 08:05:33;;;;;;;1.77;1.20;;;22.90;99.90;;;;;;4935520;29;20198;-62
2023/07/05 08:07:59;;;;;;;0.57;0.57;;;22.50;99.90;;;;;;4936205;29;20201;-64
2023/07/05 08:10:27;;;;;;;0.83;0.83;;;22.20;99.90;;;;;;4936144;29;20208;-62
2023/07/05 08:12:53;;;;;;;0.70;0.70;;;22.00;99.90;;;;;;4936175;29;20209;-62
2023/07/05 08:15:18;;;;;;;0.70;0.60;;;21.90;99.90;;;;;;4935191;29;20466;-63
2023/07/05 08:17:44;;;;;;;0.47;0.47;;;21.50;99.90;;;;;;4935559;29;20663;-63
2023/07/05 08:20:10;;;;;;;0.77;0.77;;;21.20;99.90;;;;;;4935791;29;20204;-66
2023/07/05 08:22:36;;;;;;;1.30;0.70;;;21.00;99.90;;;;;;4936004;29;20179;-66
2023/07/05 08:25:01;;;;;;;0.70;0.70;;;20.80;99.90;;;;;;4935626;29;20899;-65
2023/07/05 08:27:27;;;;;;;1.23;0.70;;;20.30;99.90;;;;;;4935720;29;20277;-64
2023/07/05 08:29:53;;;;;;;1.13;1.10;;;20.10;99.90;;;;;;4935366;29;20321;-65
2023/07/05 08:32:19;;;;;;;1.20;1.10;;;19.70;99.90;;;;;;4936437;29;20178;-64
2023/07/05 08:34:45;;;;;;;1.00;1.00;;;19.50;99.90;;;;;;4935387;29;20184;-65
2023/07/05 08:37:11;;;;;;;1.47;0.87;;;19.20;99.90;;;;;;4938206;29;20437;-63
2023/07/05 08:39:36;;;;;;;2.13;1.10;;;19.00;99.90;;;;;;4939421;29;20431;-66
2023/07/05 08:42:25;;;;;;;1.57;1.47;;;18.90;99.90;;;;;;4939432;29;20212;-64
2023/07/05 08:45:13;;;;;;;1.40;1.30;;;18.80;99.90;;;;;;4938433;29;20174;-65
2023/07/05 08:47:52;;;;;;;0.90;0.90;;;18.80;99.90;;;;;;4936892;29;20450;-65
2023/07/05 08:50:30;;;;;;;1.90;1.10;;;18.80;99.90;;;;;;4939326;29;20425;-67
2023/07/05 08:53:01;;;;;;;2.33;1.53;;;18.80;99.90;;;;;;4938549;29;20433;-64
2023/07/05 08:55:43;;;;;;;1.00;1.00;;;18.80;99.90;;;;;;4938705;29;20433;-68
2023/07/05 08:58:12;;;;;;;1.40;0.90;;;18.80;99.90;;;;;;4939300;29;20488;-66
2023/07/05 09:00:45;;;;;;;1.30;1.00;;;18.80;99.90;;;;;;4938978;29;20955;-66
2023/07/05 09:03:13;;;;;;;2.07;1.87;;;18.90;99.90;;;;;;4938742;29;20755;-62
2023/07/05 09:06:00;;;;;;;0.93;0.90;;;19.00;99.90;;;;;;4938109;29;20460;-62
2023/07/05 09:08:51;;;;;;;1.53;1.43;;;19.20;99.90;;;;;;4938853;29;20516;-63
2023/07/05 09:11:37;;;;;;;1.33;1.10;;;19.50;99.90;;;;;;4938509;29;20480;-66
2023/07/05 09:14:16;;;;;;;1.63;1.53;;;19.80;99.90;;;;;;4938584;29;20424;-63
2023/07/05 09:17:09;;;;;;;1.17;1.00;;;20.00;99.90;;;;;;4938750;29;20472;-65
2023/07/05 09:19:56;;;;;;;2.00;1.17;;;20.70;99.90;;;;;;4938479;29;20786;-64
2023/07/05 09:22:27;;;;;;;0.83;0.80;;;22.00;99.90;;;;;;4938596;29;20439;-65
2023/07/05 09:24:53;;;;;;;1.43;1.33;;;23.30;99.90;;;;;;4938275;29;20416;-65
2023/07/05 09:27:32;;;;;;;1.40;1.30;;;24.40;99.90;;;;;;4938482;29;20400;-64
2023/07/05 09:30:06;;;;;;;1.03;0.93;;;25.70;99.90;;;;;;4938490;29;20396;-65
2023/07/05 09:32:38;;;;;;;1.13;1.10;;;26.50;98.70;;;;;;4938469;29;20391;-65
2023/07/05 09:35:11;;;;;;;1.53;1.40;;;27.00;95.70;;;;;;4937459;29;20460;-65
2023/07/05 09:37:37;;;;;;;1.13;1.03;;;27.30;96.60;;;;;;4937608;29;20994;-63
2023/07/05 09:40:16;;;;;;;1.70;1.60;;;28.10;95.10;;;;;;4937582;29;20503;-65
2023/07/05 09:42:50;;;;;;;1.73;1.53;;;29.10;94.10;;;;;;4937426;29;20411;-63
2023/07/05 09:45:17;;;;;;;2.37;1.63;;;30.00;92.30;;;;;;4920574;29;20447;-64
2023/07/05 09:47:48;;;;;;;1.37;1.27;;;30.20;90.20;;;;;;4936983;29;20740;-63
2023/07/05 09:50:18;;;;;;;1.77;1.43;;;30.50;90.50;;;;;;4938014;29;20433;-62
2023/07/05 09:52:50;;;;;;;1.70;1.60;;;30.50;87.80;;;;;;4937655;29;20412;-65
2023/07/05 09:55:18;;;;;;;1.87;1.77;;;30.00;84.80;;;;;;4937377;29;20408;-64
2023/07/05 09:57:45;;;;;;;1.60;1.50;;;30.20;87.80;;;;;;4938083;29;20410;-65
2023/07/05 10:00:23;;;;;;;1.70;1.60;;;30.00;84.70;;;;;;4937992;29;20455;-65
2023/07/05 10:02:51;;;;;;;2.00;1.90;;;29.60;86.00;;;;;;4937681;29;20902;-65
2023/07/05 10:05:25;;;;;;;1.73;1.63;;;29.10;84.30;;;;;;4937107;29;20463;-62
2023/07/05 10:08:15;;;;;;;1.50;1.40;;;28.60;88.10;;;;;;4937663;29;20502;-63
2023/07/05 10:10:40;;;;;;;2.13;1.73;;;29.10;89.00;;;;;;4937815;29;20408;-62
2023/07/05 10:13:15;;;;;;;1.87;1.77;;;29.70;86.10;;;;;;4937748;29;20424;-62
2023/07/05 10:15:44;;;;;;;1.90;1.80;;;30.20;85.80;;;;;;4937408;29;20740;-62
2023/07/05 10:18:28;;;;;;;1.70;1.60;;;30.50;82.80;;;;;;4937414;29;20389;-63
2023/07/05 10:21:01;;;;;;;2.20;2.00;;;30.40;80.40;;;;;;4926637;29;20736;-61
2023/07/05 10:23:30;;;;;;;1.57;1.47;;;30.00;77.80;;;;;;4920043;29;20412;-64
2023/07/05 10:26:01;;;;;;;1.80;1.70;;;29.30;79.10;;;;;;4937223;29;20944;-64
2023/07/05 10:28:29;;;;;;;1.30;1.20;;;28.70;81.20;;;;;;4920311;29;20395;-63
2023/07/05 10:31:00;;;;;;;1.50;1.40;;;28.50;83.30;;;;;;4937424;29;20743;-62
2023/07/05 10:33:31;;;;;;;2.90;1.80;;;28.50;81.90;;;;;;4936654;29;20795;-63
2023/07/05 10:36:04;;;;;;;2.23;2.00;;;28.50;80.90;;;;;;4937302;29;20443;-67
2023/07/05 10:38:33;;;;;;;1.67;1.57;;;28.60;79.80;;;;;;4937381;29;20373;-67
2023/07/05 10:41:20;;;;;;;1.97;1.80;;;28.80;79.90;;;;;;4937280;29;20417;-66
2023/07/05 10:43:55;;;;;;;2.53;1.60;;;29.20;79.60;;;;;;4920325;29;20406;-67
2023/07/05 10:46:24;;;;;;;1.70;1.60;;;29.60;77.50;;;;;;4936893;29;20415;-70
2023/07/05 10:48:52;;;;;;;1.77;1.23;;;29.90;74.30;;;;;;4936673;29;20417;-62
2023/07/05 10:51:23;;;;;;;2.07;1.30;;;29.40;72.10;;;;;;4919959;29;20400;-61
2023/07/05 10:54:11;;;;;;;5.67;2.10;;;29.30;74.00;;;;;;4936689;29;20547;-62
2023/07/05 10:56:38;;;;;;;1.43;1.33;;;29.30;72.30;;;;;;4936768;29;20444;-62
2023/07/05 10:59:13;;;;;;;2.17;1.50;;;29.80;72.50;;;;;;4936583;29;20775;-61
2023/07/05 11:01:47;;;;;;;2.23;1.60;;;30.30;70.50;;;;;;4936718;29;20791;-63
2023/07/05 11:04:18;;;;;;;1.83;1.73;;;30.80;67.10;;;;;;4936178;29;20380;-62
2023/07/05 11:06:46;;;;;;;1.60;1.50;;;31.30;67.20;;;;;;4936312;29;20446;-61
2023/07/05 11:09:12;;;;;;;1.87;1.77;;;31.40;65.10;;;;;;4936625;29;20777;-64
2023/07/05 11:11:46;;;;;;;3.43;1.50;;;31.30;64.00;;;;;;4936461;29;20377;-62
2023/07/05 11:14:15;;;;;;;1.80;1.70;;;31.30;65.20;;;;;;4936111;29;20181;-63
2023/07/05 11:16:45;;;;;;;2.07;1.77;;;31.30;64.20;;;;;;4936245;29;20425;-65
2023/07/05 11:19:20;;;;;;;1.37;1.27;;;30.90;64.90;;;;;;4936425;29;20464;-69
2023/07/05 11:21:48;;;;;;;1.40;1.17;;;30.20;63.70;;;;;;4936029;29;20428;-62
2023/07/05 11:24:39;;;;;;;1.57;1.23;;;29.40;65.20;;;;;;4936012;29;20407;-62
2023/07/05 11:27:23;;;;;;;2.47;2.27;;;28.50;65.90;;;;;;4936229;29;20908;-63
2023/07/05 11:29:51;;;;;;;1.50;1.40;;;27.60;67.10;;;;;;4936162;29;20406;-62
2023/07/05 11:32:18;;;;;;;1.33;1.20;;;27.00;65.90;;;;;;4936107;29;20434;-63
2023/07/05 11:34:47;;;;;;;1.03;0.93;;;26.60;70.40;;;;;;4935720;29;20391;-63
2023/07/05 11:37:13;;;;;;;1.33;1.23;;;26.30;70.10;;;;;;4935356;29;20448;-64
2023/07/05 11:39:48;;;;;;;2.30;1.43;;;25.90;67.60;;;;;;4936146;29;20447;-63
2023/07/05 11:42:17;;;;;;;1.40;0.90;;;25.70;71.30;;;;;;4936059;29;20519;-64
2023/07/05 11:44:50;;;;;;;1.00;0.87;;;25.60;68.30;;;;;;4918627;29;20422;-64
2023/07/05 11:47:25;;;;;;;0.90;0.90;;;25.40;67.40;;;;;;4936065;29;20440;-65
2023/07/05 11:49:55;;;;;;;1.87;1.50;;;25.20;70.30;;;;;;4935864;29;20798;-65
2023/07/05 11:53:06;;;;;;;1.27;1.17;;;25.20;68.80;;;;;;4935674;29;20917;-64
2023/07/05 11:55:34;;;;;;;0.87;0.80;;;25.10;70.40;;;;;;4876717;29;20452;-66
2023/07/05 11:58:07;;;;;;;1.13;1.03;;;25.10;70.40;;;;;;4907306;29;20458;-64
2023/07/05 12:00:37;;;;;;;1.17;1.03;;;25.00;72.90;;;;;;4915249;29;20485;-65
2023/07/05 12:03:05;;;;;;;0.60;0.60;;;24.90;70.40;;;;;;4916668;29;20501;-63
2023/07/05 12:05:33;;;;;;;1.40;1.30;;;24.90;71.00;;;;;;4918187;29;20461;-63
2023/07/05 12:08:15;;;;;;;1.43;1.33;;;24.90;71.50;;;;;;4935456;29;20520;-62
2023/07/05 12:10:51;;;;;;;1.00;1.00;;;24.90;70.60;;;;;;4935837;29;20853;-61
2023/07/05 12:13:23;;;;;;;1.50;1.40;;;24.80;72.50;;;;;;4938948;29;20429;-61
2023/07/05 12:15:49;;;;;;;0.80;0.80;;;24.80;71.00;;;;;;4939298;29;20835;-61
2023/07/05 12:18:15;;;;;;;1.50;1.40;;;24.70;73.80;;;;;;4939574;29;20409;-62
2023/07/05 12:20:56;;;;;;;1.40;1.30;;;24.70;74.20;;;;;;4939374;29;20582;-62
2023/07/05 12:23:24;;;;;;;3.83;1.80;;;24.60;71.40;;;;;;4922970;29;20396;-71
2023/07/05 12:25:55;;;;;;;1.23;0.90;;;24.50;73.30;;;;;;4922236;29;20528;-61
2023/07/05 12:28:23;;;;;;;1.30;1.20;;;24.60;74.20;;;;;;4921952;29;20486;-62
2023/07/05 12:30:54;;;;;;;0.70;0.70;;;24.60;75.10;;;;;;4939336;29;20524;-62
2023/07/05 12:33:23;;;;;;;0.97;0.83;;;24.50;72.10;;;;;;4939256;29;20730;-63
2023/07/05 12:36:05;;;;;;;1.10;1.10;;;24.40;70.50;;;;;;4938794;29;20969;-61
2023/07/05 12:38:32;;;;;;;1.60;0.80;;;24.30;71.70;;;;;;4938840;29;20429;-62
2023/07/05 12:40:58;;;;;;;0.90;0.90;;;24.30;71.50;;;;;;4939270;29;20496;-62
2023/07/05 12:43:28;;;;;;;1.07;0.97;;;24.20;72.10;;;;;;4938612;29;20419;-63
2023/07/05 12:46:06;;;;;;;1.90;1.27;;;24.20;70.20;;;;;;4938982;29;20400;-61
2023/07/05 12:48:32;;;;;;;0.80;0.80;;;24.10;69.40;;;;;;4921966;29;20411;-62
2023/07/05 12:51:10;;;;;;;1.00;1.00;;;24.10;70.50;;;;;;4921711;29;20428;-62
2023/07/05 12:53:36;;;;;;;1.60;0.80;;;24.10;70.90;;;;;;4938684;29;20405;-62
2023/07/05 12:56:09;;;;;;;0.90;0.90;;;24.20;71.40;;;;;;4921705;29;20506;-62
2023/07/05 12:58:35;;;;;;;1.10;1.00;;;24.20;70.00;;;;;;4938820;29;20460;-63
2023/07/05 13:01:02;;;;;;;0.70;0.70;;;24.20;67.20;;;;;;4938950;29;20412;-62
2023/07/05 13:03:31;;;;;;;0.90;0.87;;;24.10;68.90;;;;;;4938519;29;20413;-62
2023/07/05 13:05:58;;;;;;;1.53;1.20;;;24.00;68.00;;;;;;4938593;29;20429;-62
2023/07/05 13:08:28;;;;;;;1.00;0.90;;;24.00;70.90;;;;;;4938804;29;20440;-62
2023/07/05 13:10:54;;;;;;;0.60;0.60;;;24.00;67.40;;;;;;4938399;29;20455;-62
2023/07/05 13:13:35;;;;;;;0.97;0.97;;;24.00;67.40;;;;;;4938519;29;20407;-61
2023/07/05 13:16:23;;;;;;;1.13;1.07;;;24.00;69.00;;;;;;4938799;29;20440;-63
2023/07/05 13:19:14;;;;;;;1.17;1.07;;;24.00;69.00;;;;;;4938673;29;20449;-60
2023/07/05 13:21:45;;;;;;;0.60;0.60;;;24.00;67.90;;;;;;4935350;29;20416;-61
2023/07/05 13:24:26;;;;;;;1.30;0.77;;;24.10;67.50;;;;;;4921193;29;20799;-62
2023/07/05 13:26:53;;;;;;;0.87;0.87;;;24.00;67.80;;;;;;4921178;29;20452;-61
2023/07/05 13:29:24;;;;;;;0.63;0.63;;;24.00;68.20;;;;;;4921373;29;20428;-62
2023/07/05 13:31:52;;;;;;;0.60;0.60;;;24.00;67.00;;;;;;4938442;29;20877;-62
2023/07/05 13:34:21;;;;;;;1.17;1.07;;;24.00;68.20;;;;;;4938305;29;20396;-62
2023/07/05 13:36:47;;;;;;;0.67;0.67;;;24.00;67.10;;;;;;4849056;29;20550;-61
2023/07/05 13:39:17;;;;;;;1.00;0.97;;;23.90;67.90;;;;;;4881324;29;20902;-62
2023/07/05 13:41:44;;;;;;;0.87;0.77;;;23.90;67.70;;;;;;4884004;29;20480;-61
2023/07/05 13:44:15;;;;;;;0.73;0.70;;;24.00;69.20;;;;;;4882873;29;20416;-62
2023/07/05 13:46:41;;;;;;;1.07;0.80;;;24.00;67.60;;;;;;4881944;29;20466;-62
2023/07/05 13:49:09;;;;;;;0.83;0.83;;;24.10;68.70;;;;;;4882603;29;20791;-62
2023/07/05 13:51:39;;;;;;;1.33;1.23;;;24.10;66.90;;;;;;4883908;29;20420;-62
2023/07/05 13:54:05;;;;;;;0.80;0.70;;;24.20;67.00;;;;;;4867648;29;20428;-62
2023/07/05 13:56:30;;;;;;;1.10;1.00;;;24.20;65.90;;;;;;4878580;29;20570;-62
2023/07/05 13:58:56;;;;;;;1.43;1.33;;;24.10;65.90;;;;;;4878810;29;20294;-63
2023/07/05 14:01:22;;;;;;;0.90;0.90;;;24.10;65.80;;;;;;4879277;29;20183;-61
2023/07/05 14:03:49;;;;;;;0.60;0.60;;;24.10;65.20;;;;;;4878999;29;20227;-62
2023/07/05 14:06:16;;;;;;;0.80;0.80;;;24.00;68.00;;;;;;4878506;29;20881;-62
2023/07/05 14:08:43;;;;;;;1.27;0.70;;;24.00;64.80;;;;;;4933049;29;20500;-62
2023/07/05 14:11:20;;;;;;;1.00;1.00;;;23.90;66.20;;;;;;4937472;29;20402;-63
2023/07/05 14:13:46;;;;;;;0.73;0.73;;;23.80;67.40;;;;;;4921770;29;20423;-61
2023/07/05 14:16:15;;;;;;;1.20;1.10;;;23.90;66.90;;;;;;4937437;29;20400;-61
2023/07/05 14:18:41;;;;;;;0.93;0.93;;;23.80;67.50;;;;;;4937604;29;20580;-62
2023/07/05 14:21:33;;;;;;;0.70;0.70;;;23.80;67.50;;;;;;4937260;29;20508;-62
2023/07/05 14:24:00;;;;;;;0.90;0.90;;;23.80;68.30;;;;;;4905885;29;20431;-63
2023/07/05 14:26:31;;;;;;;0.93;0.80;;;23.80;67.80;;;;;;4937100;29;20885;-61
2023/07/05 14:28:57;;;;;;;0.90;0.73;;;23.80;65.80;;;;;;4937310;29;20444;-62
2023/07/05 14:31:23;;;;;;;1.07;0.97;;;23.80;66.50;;;;;;4937219;29;20431;-63
2023/07/05 14:33:49;;;;;;;0.50;0.50;;;23.80;67.10;;;;;;4935876;29;20193;-63
2023/07/05 14:36:18;;;;;;;0.83;0.83;;;23.80;67.70;;;;;;4936509;29;20468;-61
2023/07/05 14:38:45;;;;;;;1.40;1.30;;;23.80;68.80;;;;;;4937246;29;20205;-63
2023/07/05 14:41:23;;;;;;;1.00;0.87;;;23.80;68.40;;;;;;4937212;29;20410;-62
2023/07/05 14:43:50;;;;;;;0.60;0.60;;;23.80;67.50;;;;;;4936722;29;20417;-62
2023/07/05 14:46:15;;;;;;;1.23;1.10;;;23.80;67.30;;;;;;4919671;29;20420;-62
2023/07/05 14:48:41;;;;;;;1.17;1.00;;;23.70;66.20;;;;;;4936712;29;20487;-61
2023/07/05 14:51:14;;;;;;;0.70;0.67;;;23.60;67.60;;;;;;4937053;29;20174;-62
2023/07/05 14:53:42;;;;;;;1.07;0.80;;;23.60;67.20;;;;;;4936128;29;20174;-62
2023/07/05 14:56:09;;;;;;;1.30;1.03;;;23.50;67.40;;;;;;4936855;29;20438;-62
2023/07/05 14:58:34;;;;;;;0.60;0.60;;;23.40;67.50;;;;;;4936705;29;20873;-62
2023/07/05 15:01:03;;;;;;;1.37;1.27;;;23.40;68.80;;;;;;4936417;29;20406;-61
2023/07/05 15:03:36;;;;;;;6.40;5.30;;;23.40;69.30;;;;;;4936512;29;20263;-62
2023/07/05 15:06:04;;;;;;;0.70;0.70;;;23.40;69.50;;;;;;4919598;29;20441;-61
2023/07/05 15:08:31;;;;;;;1.33;1.10;;;23.40;68.50;;;;;;4936401;29;20439;-61
2023/07/05 15:10:57;;;;;;;1.07;1.07;;;23.50;68.00;;;;;;4936768;29;20459;-62
2023/07/05 15:13:30;;;;;;;0.70;0.63;;;23.50;68.10;;;;;;4936332;29;20870;-63
2023/07/05 15:15:56;;;;;;;1.23;0.80;;;23.50;67.50;;;;;;4936186;29;20200;-62
2023/07/05 15:18:22;;;;;;;1.20;1.10;;;23.50;67.70;;;;;;4936755;29;20438;-62
2023/07/05 15:20:47;;;;;;;1.13;1.13;;;23.50;68.20;;;;;;4936556;29;20611;-61
2023/07/05 15:23:13;;;;;;;0.90;0.90;;;23.40;68.00;;;;;;4936706;29;20257;-63
2023/07/05 15:25:40;;;;;;;2.33;1.07;;;23.40;68.80;;;;;;4935688;29;20743;-62
2023/07/05 15:28:06;;;;;;;0.83;0.83;;;23.40;69.10;;;;;;4936671;29;20213;-62
2023/07/05 15:30:32;;;;;;;1.30;1.30;;;23.30;68.20;;;;;;4936150;29;20794;-62
2023/07/05 15:32:58;;;;;;;1.70;1.60;;;23.40;68.90;;;;;;4936591;29;20921;-62
2023/07/05 15:35:26;;;;;;;1.50;1.10;;;23.40;69.10;;;;;;4918860;29;20445;-62
2023/07/05 15:37:52;;;;;;;1.50;1.40;;;23.40;68.80;;;;;;4919046;29;20421;-62
2023/07/05 15:40:19;;;;;;;1.53;1.10;;;23.40;69.60;;;;;;4936128;29;20469;-61
2023/07/05 15:42:47;;;;;;;0.97;0.97;;;23.40;69.50;;;;;;4936535;29;20876;-62
2023/07/05 15:45:14;;;;;;;1.07;1.00;;;23.40;69.90;;;;;;4935357;29;20447;-62
2023/07/05 15:47:39;;;;;;;1.33;0.97;;;23.40;69.60;;;;;;4919024;29;20414;-61
2023/07/05 15:50:07;;;;;;;0.80;0.80;;;23.50;69.40;;;;;;4919699;29;20436;-61
2023/07/05 15:52:35;;;;;;;1.90;1.03;;;23.40;68.20;;;;;;4919155;29;20196;-63
2023/07/05 15:55:00;;;;;;;0.93;0.80;;;23.40;69.40;;;;;;4935608;29;20413;-62
2023/07/05 15:57:26;;;;;;;1.40;1.30;;;23.40;68.50;;;;;;4935968;29;20946;-62
2023/07/05 15:59:58;;;;;;;1.07;0.97;;;23.30;68.50;;;;;;4935843;29;20288;-63
2023/07/05 16:02:27;;;;;;;0.70;0.60;;;23.20;70.00;;;;;;4935869;29;20183;-63
2023/07/05 16:04:53;;;;;;;1.00;0.87;;;23.20;68.40;;;;;;4935673;29;20387;-62
2023/07/05 16:07:18;;;;;;;1.30;1.00;;;23.20;68.90;;;;;;4936075;29;20438;-61
2023/07/05 16:09:44;;;;;;;0.83;0.80;;;23.20;69.10;;;;;;4936170;29;20412;-62
2023/07/05 16:12:10;;;;;;;1.57;1.23;;;23.30;69.20;;;;;;4919353;29;20185;-61
2023/07/05 16:14:35;;;;;;;0.67;0.67;;;23.30;69.70;;;;;;4935374;29;20705;-61
2023/07/05 16:17:02;;;;;;;4.93;1.83;;;23.30;69.30;;;;;;4935959;29;20202;-61
2023/07/05 16:19:28;;;;;;;1.30;1.20;;;23.40;69.90;;;;;;4936132;29;20256;-61
2023/07/05 16:21:54;;;;;;;0.63;0.63;;;23.40;69.10;;;;;;4936030;29;20416;-59
2023/07/05 16:24:20;;;;;;;0.93;0.93;;;23.40;68.30;;;;;;4918433;29;20252;-61
2023/07/05 16:26:45;;;;;;;1.07;1.00;;;23.40;70.60;;;;;;4936081;29;20651;-61
2023/07/05 16:29:12;;;;;;;0.93;0.93;;;23.40;70.10;;;;;;4918681;29;20446;-62
2023/07/05 16:31:38;;;;;;;1.00;1.00;;;23.40;68.20;;;;;;4935812;29;20199;-61
2023/07/05 16:34:04;;;;;;;0.90;0.83;;;23.30;69.60;;;;;;4935699;29;20371;-62
2023/07/05 16:36:30;;;;;;;1.10;0.70;;;23.20;69.80;;;;;;4935815;29;20208;-60
2023/07/05 16:38:57;;;;;;;1.17;0.73;;;23.20;68.90;;;;;;4919252;29;20252;-62
2023/07/05 16:41:24;;;;;;;1.43;1.33;;;23.20;69.40;;;;;;4935914;29;20405;-62
2023/07/05 16:43:50;;;;;;;1.20;1.10;;;23.20;69.90;;;;;;4918474;29;20433;-60
2023/07/05 16:46:17;;;;;;;0.93;0.80;;;23.10;69.20;;;;;;4918550;29;20489;-60
2023/07/05 16:48:44;;;;;;;0.80;0.80;;;23.10;69.00;;;;;;4935784;29;20425;-60
2023/07/05 16:51:12;;;;;;;0.80;0.80;;;23.00;70.20;;;;;;4936076;29;20415;-60
2023/07/05 16:53:39;;;;;;;1.30;1.00;;;22.90;70.10;;;;;;4935488;29;20415;-61
2023/07/05 16:56:08;;;;;;;0.93;0.83;;;22.90;70.00;;;;;;4935430;29;20436;-62
2023/07/05 16:58:34;;;;;;;1.30;0.87;;;22.90;69.80;;;;;;4920581;29;20996;-61
2023/07/05 17:01:02;;;;;;;1.07;0.70;;;22.80;69.30;;;;;;4921637;29;20412;-61
2023/07/05 17:03:36;;;;;;;1.23;1.10;;;22.70;70.00;;;;;;4921246;29;20542;-60